MQT83M LIPZ-LOWI
Flight info
| Callsign | MQT83M |
|---|---|
| Flight time | 1h 9m |
| Altitude | 14000 |
| Route | ROSKA P125 TIBRO DCT MALUG DCT TOBSO DCT BRENO BRENO3A |
| Aircraft | AEST/L-SBDFGRY/S |
Departure
| Time | 2026-05-06 17:09 |
|---|---|
| Airport | Venice Marco Polo Airport (LIPZ) |
Arrival
| Time | 2026-05-06 18:18 |
|---|---|
| Airport | Innsbruck Airport (LOWI) |
| Time | Latitude | Longitude | Altitude | Speed | Heading |
|---|---|---|---|---|---|
| 2026-05-06 16:31 | 45.49792 | 12.33615 | 13 ft | 0 kts | 223° |
| 2026-05-06 16:55 | 45.49791 | 12.33612 | 13 ft | 1 kts | 245° |
| 2026-05-06 16:55 | 45.49803 | 12.33604 | 13 ft | 7 kts | 56° |
| 2026-05-06 16:56 | 45.49786 | 12.33673 | 12 ft | 8 kts | 84° |
| 2026-05-06 16:56 | 45.49830 | 12.33664 | 13 ft | 8 kts | 306° |
| 2026-05-06 16:56 | 45.49832 | 12.33614 | 13 ft | 6 kts | 205° |
| 2026-05-06 16:56 | 45.49828 | 12.33611 | 13 ft | 0 kts | 204° |
| 2026-05-06 17:03 | 45.49827 | 12.33611 | 13 ft | 0 kts | 204° |
| 2026-05-06 17:03 | 45.49825 | 12.33609 | 13 ft | 0 kts | 205° |
| 2026-05-06 17:04 | 45.49817 | 12.33588 | 13 ft | 4 kts | 315° |
| 2026-05-06 17:05 | 45.49835 | 12.33623 | 13 ft | 6 kts | 78° |
| 2026-05-06 17:05 | 45.49820 | 12.33680 | 12 ft | 7 kts | 132° |
| 2026-05-06 17:05 | 45.49783 | 12.33706 | 12 ft | 7 kts | 231° |
| 2026-05-06 17:05 | 45.49750 | 12.33662 | 12 ft | 7 kts | 207° |
| 2026-05-06 17:06 | 45.49702 | 12.33628 | 11 ft | 9 kts | 205° |
| 2026-05-06 17:06 | 45.49647 | 12.33585 | 10 ft | 9 kts | 219° |
| 2026-05-06 17:06 | 45.49602 | 12.33529 | 11 ft | 8 kts | 219° |
| 2026-05-06 17:06 | 45.49553 | 12.33534 | 11 ft | 8 kts | 135° |
| 2026-05-06 17:07 | 45.49519 | 12.33586 | 11 ft | 0 kts | 137° |
| 2026-05-06 17:07 | 45.49517 | 12.33588 | 11 ft | 3 kts | 135° |
| 2026-05-06 17:07 | 45.49480 | 12.33652 | 11 ft | 12 kts | 130° |
| 2026-05-06 17:08 | 45.49431 | 12.33755 | 8 ft | 13 kts | 96° |
| 2026-05-06 17:08 | 45.49477 | 12.33854 | 7 ft | 13 kts | 43° |
| 2026-05-06 17:08 | 45.49694 | 12.34137 | 4 ft | 84 kts | 41° |
| 2026-05-06 17:08 | 45.50253 | 12.34814 | 34 ft | 119 kts | 38° |
| 2026-05-06 17:09 | 45.50900 | 12.35586 | 251 ft | 126 kts | 43° |
| 2026-05-06 17:09 | 45.51506 | 12.36541 | 762 ft | 128 kts | 51° |
| 2026-05-06 17:09 | 45.52096 | 12.37463 | 1438 ft | 129 kts | 46° |
| 2026-05-06 17:09 | 45.52789 | 12.38365 | 1898 ft | 140 kts | 41° |
| 2026-05-06 17:10 | 45.53482 | 12.39277 | 2436 ft | 134 kts | 51° |
| 2026-05-06 17:10 | 45.53990 | 12.40457 | 2727 ft | 146 kts | 72° |
| 2026-05-06 17:10 | 45.54101 | 12.41868 | 3138 ft | 140 kts | 98° |
| 2026-05-06 17:10 | 45.53910 | 12.43172 | 3598 ft | 133 kts | 109° |
| 2026-05-06 17:11 | 45.53612 | 12.44462 | 3893 ft | 140 kts | 110° |
| 2026-05-06 17:11 | 45.53389 | 12.45809 | 4258 ft | 140 kts | 100° |
| 2026-05-06 17:11 | 45.53275 | 12.47189 | 4621 ft | 142 kts | 102° |
| 2026-05-06 17:11 | 45.53027 | 12.48572 | 4918 ft | 144 kts | 107° |
| 2026-05-06 17:12 | 45.52851 | 12.49967 | 5266 ft | 143 kts | 99° |
| 2026-05-06 17:12 | 45.52782 | 12.51408 | 5536 ft | 149 kts | 93° |
| 2026-05-06 17:12 | 45.52643 | 12.52875 | 5869 ft | 149 kts | 108° |
| 2026-05-06 17:12 | 45.52350 | 12.54272 | 6235 ft | 146 kts | 117° |
| 2026-05-06 17:13 | 45.51816 | 12.55499 | 6491 ft | 146 kts | 137° |
| 2026-05-06 17:13 | 45.51088 | 12.56442 | 6813 ft | 136 kts | 144° |
| 2026-05-06 17:13 | 45.50419 | 12.57393 | 7074 ft | 138 kts | 138° |
| 2026-05-06 17:13 | 45.49768 | 12.58450 | 7265 ft | 144 kts | 150° |
| 2026-05-06 17:14 | 45.49063 | 12.59432 | 7473 ft | 140 kts | 142° |
| 2026-05-06 17:14 | 45.48413 | 12.60462 | 7739 ft | 140 kts | 140° |
| 2026-05-06 17:14 | 45.47762 | 12.61515 | 7958 ft | 144 kts | 142° |
| 2026-05-06 17:14 | 45.47060 | 12.62520 | 8286 ft | 141 kts | 146° |
| 2026-05-06 17:15 | 45.46383 | 12.63489 | 8573 ft | 141 kts | 140° |
| 2026-05-06 17:15 | 45.45730 | 12.64575 | 8827 ft | 146 kts | 141° |
| 2026-05-06 17:15 | 45.45047 | 12.65627 | 9155 ft | 143 kts | 145° |
| 2026-05-06 17:15 | 45.44336 | 12.66630 | 9417 ft | 145 kts | 144° |
| 2026-05-06 17:16 | 45.43608 | 12.67635 | 9684 ft | 146 kts | 145° |
| 2026-05-06 17:16 | 45.42901 | 12.68668 | 9939 ft | 146 kts | 143° |
| 2026-05-06 17:16 | 45.42213 | 12.69744 | 10145 ft | 148 kts | 140° |
| 2026-05-06 17:16 | 45.41546 | 12.70876 | 10373 ft | 149 kts | 141° |
| 2026-05-06 17:17 | 45.40840 | 12.71945 | 10607 ft | 148 kts | 144° |
| 2026-05-06 17:17 | 45.40121 | 12.72996 | 10848 ft | 147 kts | 144° |
| 2026-05-06 17:17 | 45.39416 | 12.74051 | 11074 ft | 148 kts | 142° |
| 2026-05-06 17:17 | 45.38752 | 12.75196 | 11248 ft | 152 kts | 138° |
| 2026-05-06 17:18 | 45.38097 | 12.76374 | 11502 ft | 151 kts | 141° |
| 2026-05-06 17:18 | 45.37335 | 12.77380 | 11739 ft | 148 kts | 155° |
| 2026-05-06 17:18 | 45.36541 | 12.78314 | 11901 ft | 150 kts | 141° |
| 2026-05-06 17:18 | 45.35856 | 12.79448 | 12131 ft | 151 kts | 139° |
| 2026-05-06 17:19 | 45.35227 | 12.80634 | 12327 ft | 154 kts | 136° |
| 2026-05-06 17:19 | 45.34602 | 12.81881 | 12517 ft | 156 kts | 134° |
| 2026-05-06 17:19 | 45.33986 | 12.83144 | 12743 ft | 155 kts | 136° |
| 2026-05-06 17:19 | 45.33378 | 12.84415 | 12885 ft | 158 kts | 128° |
| 2026-05-06 17:20 | 45.32988 | 12.85920 | 12944 ft | 168 kts | 107° |
| 2026-05-06 17:20 | 45.33121 | 12.87637 | 12941 ft | 185 kts | 75° |
| 2026-05-06 17:20 | 45.33803 | 12.89174 | 13163 ft | 184 kts | 48° |
| 2026-05-06 17:20 | 45.34836 | 12.90233 | 13372 ft | 185 kts | 30° |
| 2026-05-06 17:21 | 45.35929 | 12.91185 | 13625 ft | 183 kts | 31° |
| 2026-05-06 17:21 | 45.37039 | 12.92077 | 13809 ft | 185 kts | 27° |
| 2026-05-06 17:21 | 45.38125 | 12.93074 | 13951 ft | 187 kts | 35° |
| 2026-05-06 17:21 | 45.39203 | 12.94088 | 14159 ft | 184 kts | 33° |
| 2026-05-06 17:22 | 45.40263 | 12.95124 | 14320 ft | 186 kts | 31° |
| 2026-05-06 17:22 | 45.41385 | 12.96068 | 14463 ft | 188 kts | 28° |
| 2026-05-06 17:22 | 45.42546 | 12.96890 | 14648 ft | 186 kts | 18° |
| 2026-05-06 17:22 | 45.43827 | 12.97207 | 14717 ft | 189 kts | 354° |
| 2026-05-06 17:23 | 45.45104 | 12.97061 | 14959 ft | 177 kts | 344° |
| 2026-05-06 17:23 | 45.46284 | 12.96714 | 15151 ft | 173 kts | 339° |
| 2026-05-06 17:23 | 45.47485 | 12.96329 | 15189 ft | 179 kts | 337° |
| 2026-05-06 17:23 | 45.48626 | 12.95771 | 15391 ft | 172 kts | 324° |
| 2026-05-06 17:24 | 45.49676 | 12.94991 | 15465 ft | 171 kts | 327° |
| 2026-05-06 17:24 | 45.50814 | 12.94443 | 15554 ft | 174 kts | 338° |
| 2026-05-06 17:24 | 45.52022 | 12.94140 | 15674 ft | 178 kts | 343° |
| 2026-05-06 17:24 | 45.53265 | 12.93963 | 15760 ft | 181 kts | 349° |
| 2026-05-06 17:25 | 45.54529 | 12.93886 | 15878 ft | 182 kts | 349° |
| 2026-05-06 17:25 | 45.55814 | 12.93773 | 15928 ft | 185 kts | 347° |
| 2026-05-06 17:25 | 45.57021 | 12.93484 | 16147 ft | 179 kts | 339° |
| 2026-05-06 17:25 | 45.58259 | 12.93061 | 16082 ft | 188 kts | 338° |
| 2026-05-06 17:26 | 45.59560 | 12.92614 | 16002 ft | 197 kts | 339° |
| 2026-05-06 17:26 | 45.60921 | 12.92174 | 15911 ft | 204 kts | 340° |
| 2026-05-06 17:26 | 45.62324 | 12.91748 | 15885 ft | 207 kts | 341° |
| 2026-05-06 17:26 | 45.63738 | 12.91333 | 15890 ft | 208 kts | 341° |
| 2026-05-06 17:27 | 45.65166 | 12.90916 | 15887 ft | 210 kts | 341° |
| 2026-05-06 17:27 | 45.66600 | 12.90502 | 15886 ft | 211 kts | 342° |
| 2026-05-06 17:27 | 45.68037 | 12.90088 | 15890 ft | 211 kts | 342° |
| 2026-05-06 17:27 | 45.69475 | 12.89673 | 15897 ft | 211 kts | 342° |
| 2026-05-06 17:28 | 45.70913 | 12.89258 | 15897 ft | 211 kts | 342° |
| 2026-05-06 17:28 | 45.72331 | 12.88851 | 15896 ft | 210 kts | 342° |
| 2026-05-06 17:28 | 45.73764 | 12.88440 | 15896 ft | 210 kts | 342° |
| 2026-05-06 17:28 | 45.75193 | 12.88027 | 15895 ft | 209 kts | 342° |
| 2026-05-06 17:29 | 45.76619 | 12.87612 | 15898 ft | 209 kts | 341° |
| 2026-05-06 17:29 | 45.78045 | 12.87196 | 15886 ft | 209 kts | 341° |
| 2026-05-06 17:29 | 45.79472 | 12.86779 | 15887 ft | 209 kts | 342° |
| 2026-05-06 17:29 | 45.80894 | 12.86365 | 15898 ft | 208 kts | 341° |
| 2026-05-06 17:30 | 45.82315 | 12.85952 | 15902 ft | 208 kts | 341° |
| 2026-05-06 17:30 | 45.83733 | 12.85539 | 15903 ft | 208 kts | 341° |
| 2026-05-06 17:30 | 45.85157 | 12.85123 | 15905 ft | 210 kts | 341° |
| 2026-05-06 17:30 | 45.86587 | 12.84704 | 15902 ft | 210 kts | 341° |
| 2026-05-06 17:31 | 45.88018 | 12.84288 | 15903 ft | 210 kts | 342° |
| 2026-05-06 17:31 | 45.89450 | 12.83875 | 15903 ft | 210 kts | 342° |
| 2026-05-06 17:31 | 45.90881 | 12.83462 | 15903 ft | 210 kts | 342° |
| 2026-05-06 17:31 | 45.92312 | 12.83047 | 15902 ft | 210 kts | 342° |
| 2026-05-06 17:32 | 45.93723 | 12.82637 | 15906 ft | 210 kts | 342° |
| 2026-05-06 17:32 | 45.95153 | 12.82220 | 15905 ft | 210 kts | 341° |
| 2026-05-06 17:32 | 45.96582 | 12.81802 | 15906 ft | 210 kts | 342° |
| 2026-05-06 17:32 | 45.98012 | 12.81385 | 15906 ft | 210 kts | 342° |
| 2026-05-06 17:33 | 45.99444 | 12.80966 | 15904 ft | 210 kts | 341° |
| 2026-05-06 17:33 | 46.00873 | 12.80546 | 15903 ft | 210 kts | 341° |
| 2026-05-06 17:33 | 46.02306 | 12.80123 | 15900 ft | 211 kts | 341° |
| 2026-05-06 17:33 | 46.03743 | 12.79700 | 15901 ft | 211 kts | 342° |
| 2026-05-06 17:34 | 46.05181 | 12.79280 | 15895 ft | 211 kts | 342° |
| 2026-05-06 17:34 | 46.06626 | 12.78856 | 15915 ft | 214 kts | 341° |
| 2026-05-06 17:34 | 46.08095 | 12.78430 | 15891 ft | 216 kts | 341° |
| 2026-05-06 17:34 | 46.09565 | 12.77998 | 15922 ft | 215 kts | 341° |
| 2026-05-06 17:35 | 46.11032 | 12.77563 | 15915 ft | 215 kts | 341° |
| 2026-05-06 17:35 | 46.12496 | 12.77130 | 15920 ft | 215 kts | 341° |
| 2026-05-06 17:35 | 46.13958 | 12.76697 | 15919 ft | 214 kts | 341° |
| 2026-05-06 17:36 | 46.16878 | 12.75836 | 15919 ft | 214 kts | 341° |
| 2026-05-06 17:36 | 46.18316 | 12.75411 | 15920 ft | 214 kts | 341° |
| 2026-05-06 17:36 | 46.19776 | 12.74979 | 15917 ft | 214 kts | 341° |
| 2026-05-06 17:36 | 46.21233 | 12.74549 | 15923 ft | 214 kts | 341° |
| 2026-05-06 17:37 | 46.22692 | 12.74118 | 15922 ft | 214 kts | 341° |
| 2026-05-06 17:37 | 46.24152 | 12.73684 | 15930 ft | 213 kts | 341° |
| 2026-05-06 17:37 | 46.25616 | 12.73255 | 15921 ft | 216 kts | 341° |
| 2026-05-06 17:37 | 46.27099 | 12.72820 | 15912 ft | 219 kts | 341° |
| 2026-05-06 17:38 | 46.28595 | 12.72374 | 15913 ft | 220 kts | 341° |
| 2026-05-06 17:38 | 46.30089 | 12.71926 | 15906 ft | 218 kts | 341° |
| 2026-05-06 17:38 | 46.31579 | 12.71481 | 15901 ft | 219 kts | 341° |
| 2026-05-06 17:38 | 46.33058 | 12.71048 | 15900 ft | 216 kts | 341° |
| 2026-05-06 17:39 | 46.34501 | 12.70622 | 15910 ft | 213 kts | 341° |
| 2026-05-06 17:39 | 46.35952 | 12.70194 | 15906 ft | 212 kts | 340° |
| 2026-05-06 17:39 | 46.37395 | 12.69765 | 15911 ft | 212 kts | 340° |
| 2026-05-06 17:39 | 46.38827 | 12.69338 | 15908 ft | 211 kts | 340° |
| 2026-05-06 17:40 | 46.40267 | 12.68903 | 15898 ft | 213 kts | 340° |
| 2026-05-06 17:40 | 46.41723 | 12.68463 | 15897 ft | 214 kts | 340° |
| 2026-05-06 17:40 | 46.43184 | 12.68023 | 15886 ft | 214 kts | 340° |
| 2026-05-06 17:40 | 46.44642 | 12.67587 | 15896 ft | 214 kts | 341° |
| 2026-05-06 17:41 | 46.46089 | 12.67149 | 15903 ft | 212 kts | 341° |
| 2026-05-06 17:41 | 46.47547 | 12.66718 | 15920 ft | 215 kts | 341° |
| 2026-05-06 17:41 | 46.49020 | 12.66288 | 15889 ft | 217 kts | 341° |
| 2026-05-06 17:41 | 46.50492 | 12.65851 | 15896 ft | 215 kts | 340° |
| 2026-05-06 17:42 | 46.51461 | 12.65564 | 15897 ft | 215 kts | 340° |
| 2026-05-06 17:42 | 46.52926 | 12.65127 | 15892 ft | 214 kts | 340° |
| 2026-05-06 17:42 | 46.54839 | 12.64486 | 15920 ft | 212 kts | 332° |
| 2026-05-06 17:42 | 46.56030 | 12.63315 | 15920 ft | 204 kts | 302° |
| 2026-05-06 17:43 | 46.56799 | 12.61652 | 15898 ft | 194 kts | 288° |
| 2026-05-06 17:43 | 46.57372 | 12.59917 | 15911 ft | 188 kts | 284° |
| 2026-05-06 17:43 | 46.57879 | 12.58183 | 15910 ft | 186 kts | 283° |
| 2026-05-06 17:43 | 46.58379 | 12.56461 | 15902 ft | 184 kts | 283° |
| 2026-05-06 17:44 | 46.58718 | 12.55331 | 15907 ft | 184 kts | 284° |
| 2026-05-06 17:44 | 46.59245 | 12.53629 | 15895 ft | 185 kts | 284° |
| 2026-05-06 17:44 | 46.59787 | 12.51942 | 15910 ft | 184 kts | 285° |
| 2026-05-06 17:44 | 46.60337 | 12.50276 | 15927 ft | 182 kts | 285° |
| 2026-05-06 17:45 | 46.60890 | 12.48611 | 15926 ft | 183 kts | 286° |
| 2026-05-06 17:45 | 46.61450 | 12.46949 | 15924 ft | 182 kts | 286° |
| 2026-05-06 17:45 | 46.62004 | 12.45304 | 15925 ft | 180 kts | 286° |
| 2026-05-06 17:45 | 46.62551 | 12.43689 | 15930 ft | 177 kts | 286° |
| 2026-05-06 17:46 | 46.63104 | 12.42088 | 15938 ft | 176 kts | 286° |
| 2026-05-06 17:46 | 46.63654 | 12.40486 | 15941 ft | 178 kts | 286° |
| 2026-05-06 17:46 | 46.64205 | 12.38871 | 15945 ft | 178 kts | 286° |
| 2026-05-06 17:46 | 46.64761 | 12.37240 | 15944 ft | 180 kts | 287° |
| 2026-05-06 17:47 | 46.65311 | 12.35620 | 15950 ft | 180 kts | 286° |
| 2026-05-06 17:47 | 46.65870 | 12.33998 | 15940 ft | 178 kts | 286° |
| 2026-05-06 17:47 | 46.66417 | 12.32407 | 15961 ft | 174 kts | 285° |
| 2026-05-06 17:47 | 46.66950 | 12.30839 | 15960 ft | 176 kts | 285° |
| 2026-05-06 17:48 | 46.67486 | 12.29243 | 15961 ft | 175 kts | 285° |
| 2026-05-06 17:48 | 46.68023 | 12.27647 | 15965 ft | 176 kts | 285° |
| 2026-05-06 17:48 | 46.68565 | 12.26031 | 15923 ft | 179 kts | 286° |
| 2026-05-06 17:48 | 46.69106 | 12.24452 | 15954 ft | 174 kts | 286° |
| 2026-05-06 17:49 | 46.69648 | 12.22846 | 15967 ft | 180 kts | 286° |
| 2026-05-06 17:49 | 46.70202 | 12.21208 | 15970 ft | 180 kts | 286° |
| 2026-05-06 17:49 | 46.70762 | 12.19551 | 15952 ft | 184 kts | 287° |
| 2026-05-06 17:49 | 46.71331 | 12.17862 | 15874 ft | 186 kts | 287° |
| 2026-05-06 17:50 | 46.71899 | 12.16177 | 15878 ft | 185 kts | 287° |
| 2026-05-06 17:50 | 46.72474 | 12.14477 | 15869 ft | 187 kts | 287° |
| 2026-05-06 17:50 | 46.73051 | 12.12781 | 15873 ft | 186 kts | 287° |
| 2026-05-06 17:50 | 46.73623 | 12.11084 | 15880 ft | 187 kts | 287° |
| 2026-05-06 17:51 | 46.74197 | 12.09374 | 15870 ft | 187 kts | 287° |
| 2026-05-06 17:51 | 46.74768 | 12.07696 | 15875 ft | 187 kts | 287° |
| 2026-05-06 17:51 | 46.75345 | 12.05981 | 15865 ft | 189 kts | 287° |
| 2026-05-06 17:51 | 46.75924 | 12.04262 | 15864 ft | 188 kts | 287° |
| 2026-05-06 17:52 | 46.76503 | 12.02551 | 15866 ft | 188 kts | 287° |
| 2026-05-06 17:52 | 46.77079 | 12.00846 | 15858 ft | 187 kts | 287° |
| 2026-05-06 17:52 | 46.77649 | 11.99148 | 15862 ft | 185 kts | 286° |
| 2026-05-06 17:52 | 46.78215 | 11.97460 | 15868 ft | 185 kts | 286° |
| 2026-05-06 17:53 | 46.78780 | 11.95776 | 15864 ft | 185 kts | 286° |
| 2026-05-06 17:53 | 46.79343 | 11.94089 | 15861 ft | 185 kts | 286° |
| 2026-05-06 17:53 | 46.79905 | 11.92404 | 15862 ft | 185 kts | 286° |
| 2026-05-06 17:53 | 46.80467 | 11.90725 | 15861 ft | 184 kts | 286° |
| 2026-05-06 17:54 | 46.81029 | 11.89052 | 15865 ft | 184 kts | 286° |
| 2026-05-06 17:54 | 46.81590 | 11.87374 | 15863 ft | 184 kts | 286° |
| 2026-05-06 17:54 | 46.82152 | 11.85690 | 15863 ft | 185 kts | 286° |
| 2026-05-06 17:54 | 46.82715 | 11.83998 | 15860 ft | 185 kts | 286° |
| 2026-05-06 17:55 | 46.83272 | 11.82328 | 15867 ft | 186 kts | 286° |
| 2026-05-06 17:55 | 46.83839 | 11.80631 | 15861 ft | 186 kts | 286° |
| 2026-05-06 17:55 | 46.84406 | 11.78929 | 15856 ft | 186 kts | 286° |
| 2026-05-06 17:55 | 46.84970 | 11.77223 | 15859 ft | 187 kts | 286° |
| 2026-05-06 17:56 | 46.85534 | 11.75506 | 15864 ft | 188 kts | 286° |
| 2026-05-06 17:56 | 46.86103 | 11.73777 | 15861 ft | 189 kts | 286° |
| 2026-05-06 17:56 | 46.86679 | 11.72036 | 15852 ft | 190 kts | 286° |
| 2026-05-06 17:56 | 46.87257 | 11.70307 | 15844 ft | 188 kts | 286° |
| 2026-05-06 17:57 | 46.87824 | 11.68597 | 15841 ft | 186 kts | 286° |
| 2026-05-06 17:57 | 46.88386 | 11.66903 | 15843 ft | 184 kts | 286° |
| 2026-05-06 17:57 | 46.88943 | 11.65217 | 15851 ft | 184 kts | 286° |
| 2026-05-06 17:57 | 46.89498 | 11.63537 | 15865 ft | 184 kts | 286° |
| 2026-05-06 17:58 | 46.90059 | 11.61839 | 15850 ft | 187 kts | 286° |
| 2026-05-06 17:58 | 46.90623 | 11.60137 | 15855 ft | 186 kts | 286° |
| 2026-05-06 17:58 | 46.91187 | 11.58423 | 15841 ft | 188 kts | 286° |
| 2026-05-06 17:58 | 46.91748 | 11.56721 | 15849 ft | 184 kts | 286° |
| 2026-05-06 17:59 | 46.92312 | 11.55035 | 15839 ft | 185 kts | 286° |
| 2026-05-06 17:59 | 46.92851 | 11.53397 | 15883 ft | 177 kts | 286° |
| 2026-05-06 17:59 | 46.93400 | 11.51748 | 15866 ft | 181 kts | 285° |
| 2026-05-06 17:59 | 46.93941 | 11.50081 | 15856 ft | 182 kts | 286° |
| 2026-05-06 18:00 | 46.94488 | 11.48407 | 15864 ft | 184 kts | 286° |
| 2026-05-06 18:00 | 46.95045 | 11.46714 | 15857 ft | 185 kts | 286° |
| 2026-05-06 18:00 | 46.95604 | 11.45025 | 15862 ft | 184 kts | 286° |
| 2026-05-06 18:00 | 46.96329 | 11.43490 | 15854 ft | 186 kts | 309° |
| 2026-05-06 18:01 | 46.97488 | 11.42575 | 15847 ft | 196 kts | 339° |
| 2026-05-06 18:01 | 46.98866 | 11.42617 | 15838 ft | 204 kts | 12° |
| 2026-05-06 18:01 | 47.00070 | 11.43687 | 15843 ft | 205 kts | 47° |
| 2026-05-06 18:01 | 47.00859 | 11.45432 | 15849 ft | 207 kts | 65° |
| 2026-05-06 18:02 | 47.01538 | 11.47305 | 15844 ft | 210 kts | 68° |
| 2026-05-06 18:02 | 47.02190 | 11.49222 | 15835 ft | 210 kts | 69° |
| 2026-05-06 18:02 | 47.02836 | 11.51114 | 15855 ft | 209 kts | 68° |
| 2026-05-06 18:02 | 47.03499 | 11.53033 | 15837 ft | 211 kts | 68° |
| 2026-05-06 18:03 | 47.04166 | 11.54939 | 15839 ft | 211 kts | 68° |
| 2026-05-06 18:03 | 47.04842 | 11.56879 | 15822 ft | 217 kts | 67° |
| 2026-05-06 18:03 | 47.05555 | 11.58879 | 15765 ft | 226 kts | 67° |
| 2026-05-06 18:03 | 47.06297 | 11.60937 | 15649 ft | 231 kts | 67° |
| 2026-05-06 18:04 | 47.07037 | 11.63024 | 15515 ft | 237 kts | 68° |
| 2026-05-06 18:04 | 47.07801 | 11.65203 | 15320 ft | 243 kts | 67° |
| 2026-05-06 18:04 | 47.08579 | 11.67434 | 15112 ft | 247 kts | 67° |
| 2026-05-06 18:04 | 47.09381 | 11.69670 | 14929 ft | 249 kts | 67° |
| 2026-05-06 18:05 | 47.10187 | 11.71940 | 14735 ft | 252 kts | 67° |
| 2026-05-06 18:05 | 47.11009 | 11.74207 | 14550 ft | 252 kts | 64° |
| 2026-05-06 18:05 | 47.12031 | 11.76297 | 14330 ft | 253 kts | 53° |
| 2026-05-06 18:05 | 47.13258 | 11.78155 | 14183 ft | 251 kts | 48° |
| 2026-05-06 18:06 | 47.14487 | 11.79961 | 14127 ft | 249 kts | 48° |
| 2026-05-06 18:06 | 47.15713 | 11.81762 | 14019 ft | 251 kts | 47° |
| 2026-05-06 18:06 | 47.16964 | 11.83591 | 13807 ft | 256 kts | 47° |
| 2026-05-06 18:06 | 47.18229 | 11.85429 | 13665 ft | 255 kts | 47° |
| 2026-05-06 18:07 | 47.19479 | 11.87273 | 13514 ft | 255 kts | 47° |
| 2026-05-06 18:07 | 47.20876 | 11.88879 | 13325 ft | 257 kts | 30° |
| 2026-05-06 18:07 | 47.22523 | 11.89865 | 13144 ft | 255 kts | 12° |
| 2026-05-06 18:07 | 47.24268 | 11.90276 | 12924 ft | 254 kts | 5° |
| 2026-05-06 18:08 | 47.26027 | 11.90632 | 12607 ft | 256 kts | 1° |
| 2026-05-06 18:08 | 47.27747 | 11.90346 | 12512 ft | 242 kts | 336° |
| 2026-05-06 18:08 | 47.29149 | 11.89229 | 12415 ft | 218 kts | 317° |
| 2026-05-06 18:08 | 47.30302 | 11.87944 | 12199 ft | 199 kts | 313° |
| 2026-05-06 18:09 | 47.31350 | 11.86698 | 11933 ft | 189 kts | 313° |
| 2026-05-06 18:09 | 47.32354 | 11.85515 | 11657 ft | 182 kts | 313° |
| 2026-05-06 18:09 | 47.33321 | 11.84402 | 11412 ft | 176 kts | 314° |
| 2026-05-06 18:09 | 47.34291 | 11.83296 | 11252 ft | 177 kts | 314° |
| 2026-05-06 18:10 | 47.35166 | 11.82046 | 11169 ft | 173 kts | 301° |
| 2026-05-06 18:10 | 47.35821 | 11.80613 | 11071 ft | 165 kts | 289° |
| 2026-05-06 18:10 | 47.36237 | 11.79073 | 10974 ft | 159 kts | 277° |
| 2026-05-06 18:10 | 47.36424 | 11.77514 | 10826 ft | 150 kts | 265° |
| 2026-05-06 18:11 | 47.36397 | 11.76005 | 10677 ft | 146 kts | 256° |
| 2026-05-06 18:11 | 47.36177 | 11.74570 | 10500 ft | 142 kts | 246° |
| 2026-05-06 18:11 | 47.35801 | 11.73245 | 10320 ft | 140 kts | 237° |
| 2026-05-06 18:11 | 47.35253 | 11.72042 | 10112 ft | 142 kts | 226° |
| 2026-05-06 18:12 | 47.34568 | 11.70962 | 9843 ft | 147 kts | 225° |
| 2026-05-06 18:12 | 47.33882 | 11.69819 | 9553 ft | 151 kts | 227° |
| 2026-05-06 18:12 | 47.33167 | 11.68606 | 9214 ft | 165 kts | 227° |
| 2026-05-06 18:12 | 47.32369 | 11.67289 | 8917 ft | 179 kts | 226° |
| 2026-05-06 18:13 | 47.31518 | 11.65893 | 8613 ft | 185 kts | 227° |
| 2026-05-06 18:13 | 47.30706 | 11.64401 | 8259 ft | 189 kts | 239° |
| 2026-05-06 18:13 | 47.30295 | 11.62558 | 7937 ft | 189 kts | 253° |
| 2026-05-06 18:13 | 47.30008 | 11.60667 | 7525 ft | 191 kts | 253° |
| 2026-05-06 18:14 | 47.29686 | 11.58710 | 7171 ft | 198 kts | 253° |
| 2026-05-06 18:14 | 47.29367 | 11.56763 | 6983 ft | 193 kts | 253° |
| 2026-05-06 18:14 | 47.29055 | 11.54885 | 6688 ft | 185 kts | 252° |
| 2026-05-06 18:14 | 47.28768 | 11.53173 | 6453 ft | 168 kts | 253° |
| 2026-05-06 18:15 | 47.28471 | 11.51437 | 5977 ft | 179 kts | 254° |
| 2026-05-06 18:15 | 47.28173 | 11.49639 | 5543 ft | 182 kts | 255° |
| 2026-05-06 18:15 | 47.27883 | 11.47839 | 5046 ft | 185 kts | 255° |
| 2026-05-06 18:15 | 47.27599 | 11.46033 | 4563 ft | 175 kts | 252° |
| 2026-05-06 18:16 | 47.27341 | 11.44447 | 4163 ft | 139 kts | 251° |
| 2026-05-06 18:16 | 47.27114 | 11.43176 | 3741 ft | 120 kts | 253° |
| 2026-05-06 18:16 | 47.26923 | 11.42031 | 3307 ft | 113 kts | 255° |
| 2026-05-06 18:16 | 47.26740 | 11.40904 | 2893 ft | 111 kts | 253° |
| 2026-05-06 18:17 | 47.26577 | 11.39826 | 2556 ft | 110 kts | 250° |
| 2026-05-06 18:17 | 47.26478 | 11.38706 | 2384 ft | 107 kts | 261° |
| 2026-05-06 18:17 | 47.26372 | 11.37582 | 2230 ft | 111 kts | 255° |
| 2026-05-06 18:17 | 47.26256 | 11.36452 | 2064 ft | 113 kts | 253° |
| 2026-05-06 18:18 | 47.26109 | 11.35331 | 1897 ft | 105 kts | 249° |
| 2026-05-06 18:18 | 47.26002 | 11.34498 | 1898 ft | 65 kts | 254° |
| 2026-05-06 18:18 | 47.25946 | 11.33961 | 1903 ft | 43 kts | 263° |
| 2026-05-06 18:18 | 47.25919 | 11.33735 | 1899 ft | 7 kts | 228° |
| 2026-05-06 18:19 | 47.25873 | 11.33753 | 1900 ft | 8 kts | 134° |
| 2026-05-06 18:19 | 47.25839 | 11.33818 | 1899 ft | 8 kts | 126° |
| 2026-05-06 18:19 | 47.25805 | 11.33887 | 1902 ft | 9 kts | 126° |
| 2026-05-06 18:19 | 47.25777 | 11.33970 | 1895 ft | 9 kts | 106° |
| 2026-05-06 18:20 | 47.25771 | 11.34066 | 1902 ft | 11 kts | 83° |
| 2026-05-06 18:20 | 47.25785 | 11.34222 | 1902 ft | 18 kts | 83° |
| 2026-05-06 18:20 | 47.25801 | 11.34391 | 1902 ft | 16 kts | 79° |
| 2026-05-06 18:20 | 47.25821 | 11.34539 | 1902 ft | 14 kts | 80° |
| 2026-05-06 18:21 | 47.25834 | 11.34679 | 1902 ft | 13 kts | 83° |
| 2026-05-06 18:21 | 47.25784 | 11.34746 | 1899 ft | 9 kts | 175° |
| 2026-05-06 18:21 | 47.25754 | 11.34696 | 1902 ft | 6 kts | 254° |
| 2026-05-06 18:21 | 47.25745 | 11.34631 | 1902 ft | 7 kts | 260° |
| 2026-05-06 18:22 | 47.25738 | 11.34558 | 1902 ft | 8 kts | 264° |
| 2026-05-06 18:22 | 47.25733 | 11.34476 | 1902 ft | 8 kts | 268° |
| 2026-05-06 18:22 | 47.25730 | 11.34390 | 1902 ft | 9 kts | 232° |
| 2026-05-06 18:22 | 47.25720 | 11.34373 | 1902 ft | 1 kts | 253° |
| 2026-05-06 18:23 | 47.25723 | 11.34363 | 1902 ft | 2 kts | 321° |
| 2026-05-06 18:23 | 47.25732 | 11.34369 | 1902 ft | 0 kts | 72° |